createdAt,value
2023-03-30T00:00:28.956Z,15.13
2023-03-30T00:02:57.879Z,13.45
2023-03-30T00:05:28.887Z,12.40
2023-03-30T00:07:58.702Z,12.63
2023-03-30T00:10:27.315Z,14.93
2023-03-30T00:12:58.215Z,17.02
2023-03-30T00:15:30.173Z,14.82
2023-03-30T00:18:00.073Z,8.68
2023-03-30T00:20:32.539Z,11.30
2023-03-30T00:23:02.275Z,13.13
2023-03-30T00:25:31.468Z,12.68
2023-03-30T00:28:01.418Z,13.10
2023-03-30T00:30:33.139Z,12.07
2023-03-30T00:33:02.414Z,10.98
2023-03-30T00:35:31.934Z,10.30
2023-03-30T00:38:03.815Z,11.00
2023-03-30T00:40:34.645Z,15.80
2023-03-30T00:43:06.548Z,10.00
2023-03-30T00:45:43.958Z,14.77
2023-03-30T00:48:18.138Z,10.00
2023-03-30T00:50:53.438Z,7.55
2023-03-30T00:53:29.590Z,11.18
2023-03-30T00:56:00.685Z,12.15
2023-03-30T00:58:31.492Z,10.25
2023-03-30T01:01:06.912Z,12.70
2023-03-30T01:03:43.638Z,12.68
2023-03-30T01:06:14.346Z,9.77
2023-03-30T01:08:44.638Z,11.13
2023-03-30T01:11:14.000Z,11.18
2023-03-30T01:13:50.237Z,7.65
2023-03-30T01:16:31.322Z,10.40
2023-03-30T01:19:22.859Z,12.02
2023-03-30T01:22:50.774Z,9.20
2023-03-30T01:25:57.471Z,11.32
2023-03-30T01:31:33.458Z,8.80
2023-03-30T01:34:52.054Z,11.93
2023-03-30T01:38:18.354Z,11.50
2023-03-30T01:40:59.459Z,8.98
2023-03-30T01:43:37.931Z,12.25
2023-03-30T01:46:14.770Z,10.15
2023-03-30T01:48:50.443Z,12.48
2023-03-30T01:51:27.017Z,13.10
2023-03-30T01:54:06.663Z,7.60
2023-03-30T01:56:43.153Z,13.05
2023-03-30T01:59:18.809Z,12.40
2023-03-30T02:01:50.454Z,10.37
2023-03-30T02:04:24.117Z,16.52
2023-03-30T02:07:00.571Z,11.55
2023-03-30T02:09:31.616Z,8.48
2023-03-30T02:12:05.290Z,12.50
2023-03-30T02:14:37.350Z,12.20
2023-03-30T02:17:12.733Z,10.70
2023-03-30T02:22:13.104Z,11.73
2023-03-30T02:24:44.615Z,15.07
2023-03-30T02:27:18.726Z,15.90
2023-03-30T02:29:48.033Z,10.07
2023-03-30T02:32:21.292Z,9.15
2023-03-30T02:35:22.902Z,7.40
2023-03-30T02:38:20.796Z,12.10
2023-03-30T02:41:05.494Z,8.43
2023-03-30T02:43:45.964Z,9.00
2023-03-30T02:46:37.523Z,9.93
2023-03-30T02:49:19.503Z,10.68
2023-03-30T02:51:51.965Z,15.60
2023-03-30T02:54:33.166Z,15.88
2023-03-30T02:57:11.412Z,15.93
2023-03-30T02:59:51.402Z,10.75
2023-03-30T03:02:24.807Z,14.07
2023-03-30T03:04:54.733Z,14.57
2023-03-30T03:07:24.029Z,10.32
2023-03-30T03:09:53.610Z,13.80
2023-03-30T03:12:22.259Z,12.10
2023-03-30T03:14:52.875Z,8.75
2023-03-30T03:17:22.588Z,14.68
2023-03-30T03:19:51.478Z,11.00
2023-03-30T03:22:20.100Z,11.63
2023-03-30T03:24:49.711Z,11.10
2023-03-30T03:27:18.846Z,11.68
2023-03-30T03:29:49.803Z,14.15
2023-03-30T03:32:28.794Z,17.20
2023-03-30T03:34:57.709Z,12.52
2023-03-30T03:37:26.794Z,12.57
2023-03-30T03:39:56.043Z,11.55
2023-03-30T03:42:25.245Z,13.27
2023-03-30T03:44:54.767Z,8.43
2023-03-30T03:47:30.417Z,12.98
2023-03-30T03:50:01.439Z,13.68
2023-03-30T03:52:31.932Z,14.50
2023-03-30T03:55:01.258Z,10.40
2023-03-30T03:57:31.020Z,11.85
2023-03-30T04:00:03.384Z,13.65
2023-03-30T04:02:35.209Z,12.40
2023-03-30T04:05:08.196Z,11.52
2023-03-30T04:07:46.563Z,10.82
2023-03-30T04:10:21.670Z,9.95
2023-03-30T04:12:52.906Z,9.98
2023-03-30T04:15:22.124Z,9.50
2023-03-30T04:17:58.643Z,14.90
2023-03-30T04:20:29.397Z,8.95
2023-03-30T04:23:01.989Z,12.30
2023-03-30T04:25:31.843Z,13.55
2023-03-30T04:28:01.029Z,10.52
2023-03-30T04:30:30.792Z,11.00
2023-03-30T04:33:06.463Z,10.07
2023-03-30T04:35:36.764Z,11.48
2023-03-30T04:38:07.613Z,10.73
2023-03-30T04:40:42.319Z,10.50
2023-03-30T04:43:14.673Z,11.88
2023-03-30T04:45:44.763Z,12.55
2023-03-30T04:48:15.844Z,14.43
2023-03-30T04:50:53.139Z,12.68
2023-03-30T04:53:23.372Z,16.15
2023-03-30T04:55:55.248Z,17.17
2023-03-30T04:58:24.122Z,13.80
2023-03-30T05:00:54.537Z,17.05
2023-03-30T05:03:27.517Z,16.13
2023-03-30T05:05:59.435Z,21.83
2023-03-30T05:08:30.763Z,13.95
2023-03-30T05:11:02.973Z,16.52
2023-03-30T05:13:31.887Z,19.33
2023-03-30T05:16:01.866Z,22.45
2023-03-30T05:18:32.081Z,25.27
2023-03-30T05:21:02.289Z,19.17
2023-03-30T05:23:32.554Z,17.77
2023-03-30T05:26:01.611Z,18.90
2023-03-30T05:28:32.602Z,13.75
2023-03-30T05:31:02.891Z,23.55
2023-03-30T05:33:50.067Z,21.95
2023-03-30T05:36:22.104Z,24.20
2023-03-30T05:38:52.512Z,21.58
2023-03-30T05:41:30.280Z,23.77
2023-03-30T05:44:00.443Z,27.13
2023-03-30T05:46:30.187Z,22.90
2023-03-30T05:51:47.067Z,37.55
2023-03-30T05:54:20.080Z,27.50
2023-03-30T06:02:26.835Z,27.45
2023-03-30T06:05:02.687Z,27.55
2023-03-30T06:07:33.248Z,31.20
2023-03-30T06:10:19.966Z,32.00
2023-03-30T06:13:03.557Z,33.63
2023-03-30T06:15:54.311Z,32.10
2023-03-30T06:18:23.384Z,27.75
2023-03-30T06:21:08.797Z,27.58
2023-03-30T06:23:38.223Z,31.02
2023-03-30T06:26:10.041Z,35.53
2023-03-30T06:28:41.628Z,37.45
2023-03-30T06:31:13.029Z,34.58
2023-03-30T06:33:42.193Z,31.73
2023-03-30T06:36:16.953Z,34.28
2023-03-30T06:38:52.547Z,31.42
2023-03-30T06:41:22.665Z,26.67
2023-03-30T06:43:53.479Z,34.88
2023-03-30T06:46:23.885Z,36.13
2023-03-30T06:48:54.363Z,32.03
2023-03-30T06:51:41.535Z,31.42
2023-03-30T06:54:10.898Z,37.00
2023-03-30T06:56:40.560Z,32.90
2023-03-30T06:59:15.375Z,34.03
2023-03-30T07:04:32.050Z,43.20
2023-03-30T07:07:54.719Z,38.28
2023-03-30T07:10:38.090Z,41.35
2023-03-30T07:31:59.494Z,47.35
2023-03-30T07:56:46.549Z,38.58
2023-03-30T07:59:19.131Z,31.50
2023-03-30T08:04:49.647Z,31.15
2023-03-30T08:07:32.385Z,40.50
2023-03-30T08:10:12.852Z,32.75
2023-03-30T08:12:45.994Z,32.60
2023-03-30T08:15:18.118Z,40.88
2023-03-30T08:17:48.531Z,40.47
2023-03-30T08:20:20.407Z,33.30
2023-03-30T08:25:52.378Z,38.17
2023-03-30T08:28:55.329Z,33.65
2023-03-30T08:31:45.510Z,38.60
2023-03-30T08:37:31.451Z,36.65
2023-03-30T08:40:06.372Z,39.17
2023-03-30T08:43:27.786Z,38.28
2023-03-30T08:49:17.766Z,43.55
2023-03-30T08:51:59.688Z,39.38
2023-03-30T09:04:35.171Z,43.45
2023-03-30T09:13:22.155Z,34.63
2023-03-30T09:15:57.325Z,29.77
2023-03-30T09:18:33.884Z,40.75
2023-03-30T09:21:07.136Z,35.42
2023-03-30T09:23:40.876Z,40.45
2023-03-30T09:26:22.636Z,34.15
2023-03-30T09:29:01.142Z,40.53
2023-03-30T09:31:44.955Z,32.53
2023-03-30T09:34:28.443Z,34.15
2023-03-30T09:37:19.431Z,39.97
2023-03-30T09:47:13.768Z,25.85
2023-03-30T09:52:47.892Z,29.10
2023-03-30T09:55:51.071Z,31.10
2023-03-30T09:58:30.113Z,28.60
2023-03-30T10:01:50.541Z,27.42
2023-03-30T10:04:20.180Z,32.92
2023-03-30T10:06:52.645Z,32.97
2023-03-30T10:09:25.161Z,30.55
2023-03-30T10:12:03.772Z,33.97
2023-03-30T10:14:38.672Z,28.15
2023-03-30T10:17:10.322Z,30.67
2023-03-30T10:19:48.105Z,35.83
2023-03-30T10:22:23.138Z,30.10
2023-03-30T10:24:57.453Z,36.83
2023-03-30T10:27:35.526Z,31.65
2023-03-30T10:30:24.835Z,35.53
2023-03-30T10:33:03.181Z,36.72
2023-03-30T10:38:24.630Z,29.35
2023-03-30T10:41:04.074Z,37.13
2023-03-30T10:43:43.806Z,33.80
2023-03-30T10:46:20.520Z,21.73
2023-03-30T10:49:13.536Z,35.80
2023-03-30T10:55:26.778Z,31.15
2023-03-30T10:58:09.408Z,29.30
2023-03-30T11:01:08.402Z,31.38
2023-03-30T11:03:40.835Z,24.42
2023-03-30T11:06:18.725Z,29.02
2023-03-30T11:08:51.929Z,31.15
2023-03-30T11:11:27.566Z,32.55
2023-03-30T11:14:01.971Z,36.05
2023-03-30T11:16:40.533Z,31.17
2023-03-30T11:19:16.105Z,28.75
2023-03-30T11:21:56.801Z,32.72
2023-03-30T11:24:28.174Z,28.17
2023-03-30T11:27:08.189Z,27.50
2023-03-30T11:29:45.026Z,23.77
2023-03-30T11:32:27.313Z,25.25
2023-03-30T11:35:06.988Z,33.13
2023-03-30T11:37:43.689Z,28.27
2023-03-30T11:40:19.265Z,31.05
2023-03-30T11:42:48.882Z,35.05
2023-03-30T11:45:53.426Z,32.95
2023-03-30T11:48:57.313Z,28.33
2023-03-30T11:51:51.109Z,32.30
2023-03-30T11:54:44.990Z,34.40
2023-03-30T11:57:35.830Z,33.28
2023-03-30T12:00:26.731Z,32.47
2023-03-30T12:03:06.629Z,28.42
2023-03-30T12:05:39.789Z,32.58
2023-03-30T12:08:25.567Z,29.58
2023-03-30T12:13:41.007Z,33.28
2023-03-30T12:16:28.212Z,29.73
2023-03-30T12:19:11.808Z,32.83
2023-03-30T12:21:49.068Z,36.88
2023-03-30T12:24:25.647Z,34.30
2023-03-30T12:27:05.279Z,29.20
2023-03-30T12:32:29.010Z,27.92
2023-03-30T12:34:59.695Z,29.33
2023-03-30T12:37:35.303Z,32.33
2023-03-30T12:40:09.191Z,38.22
2023-03-30T12:42:47.018Z,29.23
2023-03-30T12:45:32.964Z,24.48
2023-03-30T12:48:26.391Z,24.30
2023-03-30T12:51:19.160Z,34.55
2023-03-30T12:54:30.569Z,45.55
2023-03-30T12:57:10.715Z,31.58
2023-03-30T13:00:23.569Z,36.22
2023-03-30T13:03:27.829Z,45.08
2023-03-30T13:05:59.524Z,39.85
2023-03-30T13:08:37.190Z,41.13
2023-03-30T13:11:15.409Z,39.13
2023-03-30T13:13:53.128Z,32.00
2023-03-30T13:17:17.638Z,41.35
2023-03-30T13:20:12.699Z,39.85
2023-03-30T13:23:28.484Z,35.90
2023-03-30T13:26:08.431Z,37.50
2023-03-30T13:28:57.020Z,37.83
2023-03-30T13:31:50.588Z,36.35
2023-03-30T13:34:38.824Z,42.63
2023-03-30T13:37:17.685Z,38.90
2023-03-30T13:39:54.011Z,39.35
2023-03-30T13:42:42.675Z,38.97
2023-03-30T13:45:32.134Z,38.53
2023-03-30T13:48:17.674Z,42.85
2023-03-30T13:50:57.057Z,40.47
2023-03-30T13:53:49.521Z,42.28
2023-03-30T13:56:21.533Z,39.90
2023-03-30T13:58:56.200Z,45.35
2023-03-30T14:01:26.994Z,41.08
2023-03-30T14:04:03.456Z,39.85
2023-03-30T14:06:39.479Z,42.00
2023-03-30T14:09:14.904Z,39.88
2023-03-30T14:14:22.294Z,39.83
2023-03-30T14:16:52.248Z,32.00
2023-03-30T14:19:26.536Z,29.23
2023-03-30T14:22:01.953Z,33.92
2023-03-30T14:27:06.224Z,36.97
2023-03-30T14:29:35.498Z,28.95
2023-03-30T14:32:08.569Z,36.83
2023-03-30T14:34:39.014Z,33.70
2023-03-30T14:37:12.550Z,33.95
2023-03-30T14:39:46.564Z,28.55
2023-03-30T14:42:26.551Z,29.63
2023-03-30T14:44:59.666Z,27.73
2023-03-30T14:47:30.566Z,29.52
2023-03-30T14:50:02.453Z,25.42
2023-03-30T14:52:39.843Z,31.45
2023-03-30T14:55:17.558Z,35.67
2023-03-30T14:57:48.301Z,25.33
2023-03-30T15:00:24.696Z,29.77
2023-03-30T15:02:58.789Z,26.23
2023-03-30T15:12:59.766Z,38.10
2023-03-30T15:15:44.552Z,34.70
2023-03-30T15:18:24.623Z,25.98
2023-03-30T15:20:55.233Z,38.72
2023-03-30T15:23:27.009Z,26.92
2023-03-30T15:26:00.894Z,32.28
2023-03-30T15:28:35.456Z,32.28
2023-03-30T15:31:06.878Z,31.53
2023-03-30T15:33:44.453Z,38.22
2023-03-30T15:36:22.457Z,38.10
2023-03-30T15:38:54.854Z,38.85
2023-03-30T15:41:27.444Z,37.83
2023-03-30T15:44:00.416Z,38.42
2023-03-30T15:46:37.194Z,37.47
2023-03-30T15:49:09.078Z,37.17
2023-03-30T15:51:44.301Z,41.50
2023-03-30T15:54:15.960Z,38.22
2023-03-30T15:56:58.932Z,39.95
2023-03-30T15:59:33.577Z,32.28
2023-03-30T16:02:17.620Z,30.45
2023-03-30T16:04:46.491Z,33.15
2023-03-30T16:07:29.398Z,34.80
2023-03-30T16:10:01.920Z,38.05
2023-03-30T16:12:32.863Z,33.83
2023-03-30T16:15:02.792Z,37.45
2023-03-30T16:17:36.392Z,36.90
2023-03-30T16:20:17.239Z,30.15
2023-03-30T16:22:50.871Z,27.55
2023-03-30T16:25:31.268Z,30.48
2023-03-30T16:28:07.714Z,37.05
2023-03-30T16:30:45.470Z,31.65
2023-03-30T16:33:16.417Z,31.27
2023-03-30T16:35:45.482Z,30.85
2023-03-30T16:38:18.933Z,30.98
2023-03-30T16:40:54.346Z,31.30
2023-03-30T16:43:24.338Z,39.65
2023-03-30T16:45:55.190Z,33.28
2023-03-30T16:48:30.520Z,37.67
2023-03-30T16:53:29.830Z,32.72
2023-03-30T16:56:04.354Z,34.42
2023-03-30T16:58:34.684Z,40.83
2023-03-30T17:01:05.228Z,35.30
2023-03-30T17:03:36.127Z,35.13
2023-03-30T17:06:07.382Z,35.95
2023-03-30T17:08:37.044Z,32.78
2023-03-30T17:11:11.748Z,35.03
2023-03-30T17:13:45.662Z,34.33
2023-03-30T17:16:24.044Z,33.28
2023-03-30T17:18:54.992Z,40.20
2023-03-30T17:21:25.275Z,36.40
2023-03-30T17:23:55.763Z,36.03
2023-03-30T17:26:39.599Z,24.02
2023-03-30T17:29:11.666Z,24.40
2023-03-30T17:31:45.972Z,27.38
2023-03-30T17:34:16.679Z,35.00
2023-03-30T17:36:46.162Z,27.83
2023-03-30T17:39:20.335Z,31.50
2023-03-30T17:41:53.030Z,28.63
2023-03-30T17:44:38.541Z,32.83
2023-03-30T17:47:07.677Z,28.50
2023-03-30T17:49:42.572Z,32.33
2023-03-30T17:52:14.030Z,33.38
2023-03-30T17:54:44.343Z,39.35
2023-03-30T17:57:18.942Z,29.75
2023-03-30T17:59:47.963Z,32.67
2023-03-30T18:02:18.117Z,33.33
2023-03-30T18:04:49.561Z,35.08
2023-03-30T18:07:22.583Z,35.05
2023-03-30T18:09:52.328Z,37.72
2023-03-30T18:12:22.269Z,25.92
2023-03-30T18:14:56.596Z,33.75
2023-03-30T18:17:25.932Z,33.20
2023-03-30T18:19:57.741Z,38.20
2023-03-30T18:22:27.352Z,29.92
2023-03-30T18:24:58.194Z,30.40
2023-03-30T18:30:59.973Z,38.83
2023-03-30T18:33:45.859Z,39.35
2023-03-30T18:39:52.565Z,31.83
2023-03-30T18:46:30.080Z,38.38
2023-03-30T18:49:08.071Z,36.13
2023-03-30T18:51:44.969Z,31.00
2023-03-30T18:54:35.848Z,33.40
2023-03-30T18:57:07.322Z,37.35
2023-03-30T18:59:41.213Z,32.13
2023-03-30T19:02:20.598Z,41.90
2023-03-30T19:08:06.464Z,37.25
2023-03-30T19:10:40.645Z,47.53
2023-03-30T19:13:13.269Z,44.80
2023-03-30T19:15:54.477Z,36.17
2023-03-30T19:18:25.120Z,40.33
2023-03-30T19:20:55.663Z,39.95
2023-03-30T19:23:25.831Z,38.60
2023-03-30T19:25:55.887Z,35.72
2023-03-30T19:28:28.782Z,46.53
2023-03-30T19:30:59.528Z,45.05
2023-03-30T19:33:28.748Z,40.83
2023-03-30T19:35:57.337Z,36.72
2023-03-30T19:38:27.722Z,42.33
2023-03-30T19:41:01.846Z,53.15
2023-03-30T19:43:31.958Z,39.67
2023-03-30T19:46:04.997Z,49.42
2023-03-30T19:48:35.517Z,46.50
2023-03-30T19:51:04.569Z,43.70
2023-03-30T19:53:34.741Z,51.53
2023-03-30T19:56:03.670Z,46.90
2023-03-30T19:58:33.033Z,44.83
2023-03-30T20:01:06.046Z,42.53
2023-03-30T20:03:35.535Z,60.60
2023-03-30T20:06:04.495Z,44.92
2023-03-30T20:08:39.130Z,50.88
2023-03-30T20:11:12.511Z,40.05
2023-03-30T20:13:45.854Z,44.22
2023-03-30T20:16:20.582Z,49.40
2023-03-30T20:18:54.193Z,51.38
2023-03-30T20:21:24.957Z,50.28
2023-03-30T20:23:56.088Z,51.50
2023-03-30T20:26:24.560Z,41.03
2023-03-30T20:28:53.466Z,49.40
2023-03-30T20:31:21.921Z,50.00
2023-03-30T20:33:50.882Z,50.38
2023-03-30T20:36:19.375Z,53.95
2023-03-30T20:38:48.521Z,55.17
2023-03-30T20:41:21.774Z,45.92
2023-03-30T20:43:57.093Z,39.45
2023-03-30T20:46:35.440Z,36.55
2023-03-30T20:49:03.864Z,46.97
2023-03-30T20:51:32.605Z,43.92
2023-03-30T20:54:01.222Z,50.65
2023-03-30T20:56:31.221Z,43.08
2023-03-30T20:58:59.769Z,44.75
2023-03-30T21:01:30.242Z,46.30
2023-03-30T21:04:01.194Z,48.30
2023-03-30T21:06:31.911Z,46.65
2023-03-30T21:09:03.280Z,41.05
2023-03-30T21:11:35.341Z,41.90
2023-03-30T21:14:03.751Z,49.03
2023-03-30T21:16:32.251Z,46.85
2023-03-30T21:19:00.871Z,41.67
2023-03-30T21:21:29.283Z,55.22
2023-03-30T21:23:58.145Z,40.22
2023-03-30T21:26:26.602Z,42.55
2023-03-30T21:28:56.706Z,46.17
2023-03-30T21:31:25.844Z,51.83
2023-03-30T21:33:54.518Z,50.30
2023-03-30T21:36:23.290Z,50.47
2023-03-30T21:38:51.878Z,47.83
2023-03-30T21:41:24.160Z,41.55
2023-03-30T21:43:52.646Z,61.15
2023-03-30T21:46:25.092Z,43.25
2023-03-30T21:48:54.545Z,54.45
2023-03-30T21:51:26.403Z,47.80
2023-03-30T21:53:57.392Z,49.13
2023-03-30T21:56:29.473Z,50.45
2023-03-30T21:58:58.587Z,49.55
2023-03-30T22:01:28.753Z,38.50
2023-03-30T22:03:57.772Z,44.58
2023-03-30T22:06:26.379Z,48.47
2023-03-30T22:08:54.877Z,46.83
2023-03-30T22:11:25.711Z,40.90
2023-03-30T22:13:55.265Z,48.90
2023-03-30T22:16:29.943Z,48.50
2023-03-30T22:18:58.762Z,48.85
2023-03-30T22:21:34.460Z,41.58
2023-03-30T22:24:04.275Z,48.22
2023-03-30T22:26:33.354Z,49.95
2023-03-30T22:29:01.880Z,53.97
2023-03-30T22:31:32.116Z,50.85
2023-03-30T22:34:00.577Z,43.28
2023-03-30T22:36:31.351Z,48.05
2023-03-30T22:39:02.396Z,48.90
2023-03-30T22:41:31.121Z,37.13
2023-03-30T22:44:00.100Z,38.35
2023-03-30T22:46:36.224Z,52.78
2023-03-30T22:49:04.702Z,48.25
2023-03-30T22:51:34.103Z,53.08
2023-03-30T22:54:02.529Z,36.42
2023-03-30T22:56:31.786Z,47.60
2023-03-30T22:59:01.318Z,37.25
2023-03-30T23:01:32.068Z,36.67
2023-03-30T23:04:03.344Z,46.42
2023-03-30T23:06:33.779Z,44.88
2023-03-30T23:09:02.772Z,44.40
2023-03-30T23:11:32.078Z,44.70
2023-03-30T23:14:05.132Z,41.28
2023-03-30T23:16:36.043Z,47.33
2023-03-30T23:19:06.714Z,50.25
2023-03-30T23:21:36.232Z,52.67
2023-03-30T23:24:07.582Z,44.53
2023-03-30T23:26:36.481Z,42.35
2023-03-30T23:29:05.556Z,48.42
2023-03-30T23:31:34.642Z,47.65
2023-03-30T23:34:03.377Z,40.08
2023-03-30T23:36:33.101Z,36.30
2023-03-30T23:39:01.471Z,41.40
2023-03-30T23:41:30.223Z,48.40
2023-03-30T23:43:58.632Z,46.85
2023-03-30T23:46:27.352Z,45.03
2023-03-30T23:48:55.802Z,47.92
2023-03-30T23:51:24.366Z,44.90
2023-03-30T23:53:56.726Z,32.83
2023-03-30T23:56:29.994Z,45.67
2023-03-30T23:58:59.146Z,44.33
